sensor_id;sensor_type;location;lat;lon;timestamp;temperature;humidity
56300;DHT22;42209;6.376;-10.782;2023-07-13T00:01:10;22.70;81.90
56300;DHT22;42209;6.376;-10.782;2023-07-13T00:03:39;22.40;80.10
56300;DHT22;42209;6.376;-10.782;2023-07-13T00:06:08;22.50;86.10
56300;DHT22;42209;6.376;-10.782;2023-07-13T00:08:37;22.60;88.20
56300;DHT22;42209;6.376;-10.782;2023-07-13T00:11:06;22.70;89.30
56300;DHT22;42209;6.376;-10.782;2023-07-13T00:13:34;22.80;90.10
56300;DHT22;42209;6.376;-10.782;2023-07-13T00:16:03;22.90;90.30
56300;DHT22;42209;6.376;-10.782;2023-07-13T00:18:33;23.00;90.60
56300;DHT22;42209;6.376;-10.782;2023-07-13T00:21:02;23.10;90.90
56300;DHT22;42209;6.376;-10.782;2023-07-13T00:23:33;23.10;91.00
56300;DHT22;42209;6.376;-10.782;2023-07-13T00:26:09;23.10;91.10
56300;DHT22;42209;6.376;-10.782;2023-07-13T00:28:40;23.00;85.80
56300;DHT22;42209;6.376;-10.782;2023-07-13T00:31:12;22.60;81.20
56300;DHT22;42209;6.376;-10.782;2023-07-13T00:33:41;22.30;79.20
56300;DHT22;42209;6.376;-10.782;2023-07-13T00:36:11;22.40;85.50
56300;DHT22;42209;6.376;-10.782;2023-07-13T00:38:40;22.50;87.60
56300;DHT22;42209;6.376;-10.782;2023-07-13T00:41:09;22.70;88.90
56300;DHT22;42209;6.376;-10.782;2023-07-13T00:43:38;22.80;89.80
56300;DHT22;42209;6.376;-10.782;2023-07-13T00:46:13;22.90;90.20
56300;DHT22;42209;6.376;-10.782;2023-07-13T00:48:44;22.90;90.40
56300;DHT22;42209;6.376;-10.782;2023-07-13T00:51:19;23.00;90.70
56300;DHT22;42209;6.376;-10.782;2023-07-13T00:53:50;23.10;90.90
56300;DHT22;42209;6.376;-10.782;2023-07-13T00:56:19;23.10;91.10
56300;DHT22;42209;6.376;-10.782;2023-07-13T00:58:48;23.00;85.20
56300;DHT22;42209;6.376;-10.782;2023-07-13T01:01:18;22.60;80.90
56300;DHT22;42209;6.376;-10.782;2023-07-13T01:03:47;22.30;79.90
56300;DHT22;42209;6.376;-10.782;2023-07-13T01:06:16;22.40;85.70
56300;DHT22;42209;6.376;-10.782;2023-07-13T01:08:45;22.50;87.70
56300;DHT22;42209;6.376;-10.782;2023-07-13T01:11:19;22.70;88.80
56300;DHT22;42209;6.376;-10.782;2023-07-13T01:13:48;22.80;89.80
56300;DHT22;42209;6.376;-10.782;2023-07-13T01:16:25;22.90;90.30
56300;DHT22;42209;6.376;-10.782;2023-07-13T01:18:55;22.90;90.40
56300;DHT22;42209;6.376;-10.782;2023-07-13T01:21:25;23.00;90.80
56300;DHT22;42209;6.376;-10.782;2023-07-13T01:23:54;23.10;90.80
56300;DHT22;42209;6.376;-10.782;2023-07-13T01:26:22;23.10;91.10
56300;DHT22;42209;6.376;-10.782;2023-07-13T01:28:51;23.10;91.00
56300;DHT22;42209;6.376;-10.782;2023-07-13T01:31:19;22.90;83.30
56300;DHT22;42209;6.376;-10.782;2023-07-13T01:33:48;22.60;79.20
56300;DHT22;42209;6.376;-10.782;2023-07-13T01:36:16;22.40;82.40
56300;DHT22;42209;6.376;-10.782;2023-07-13T01:38:45;22.50;86.60
56300;DHT22;42209;6.376;-10.782;2023-07-13T01:41:14;22.60;88.10
56300;DHT22;42209;6.376;-10.782;2023-07-13T01:43:42;22.70;89.20
56300;DHT22;42209;6.376;-10.782;2023-07-13T01:46:10;22.80;90.00
56300;DHT22;42209;6.376;-10.782;2023-07-13T01:48:51;22.90;90.30
56300;DHT22;42209;6.376;-10.782;2023-07-13T01:51:20;23.00;90.60
56300;DHT22;42209;6.376;-10.782;2023-07-13T01:53:49;23.00;90.90
56300;DHT22;42209;6.376;-10.782;2023-07-13T01:56:18;23.10;91.00
56300;DHT22;42209;6.376;-10.782;2023-07-13T01:58:46;23.10;91.10
56300;DHT22;42209;6.376;-10.782;2023-07-13T02:01:16;23.10;89.20
56300;DHT22;42209;6.376;-10.782;2023-07-13T02:03:44;22.80;82.10
56300;DHT22;42209;6.376;-10.782;2023-07-13T02:06:13;22.40;79.00
56300;DHT22;42209;6.376;-10.782;2023-07-13T02:08:42;22.30;84.50
56300;DHT22;42209;6.376;-10.782;2023-07-13T02:11:11;22.50;87.10
56300;DHT22;42209;6.376;-10.782;2023-07-13T02:13:39;22.60;88.50
56300;DHT22;42209;6.376;-10.782;2023-07-13T02:16:08;22.80;89.50
56300;DHT22;42209;6.376;-10.782;2023-07-13T02:18:37;22.90;90.00
56300;DHT22;42209;6.376;-10.782;2023-07-13T02:21:06;22.90;90.20
56300;DHT22;42209;6.376;-10.782;2023-07-13T02:23:34;23.00;90.70
56300;DHT22;42209;6.376;-10.782;2023-07-13T02:26:03;23.00;90.90
56300;DHT22;42209;6.376;-10.782;2023-07-13T02:28:31;23.10;91.00
56300;DHT22;42209;6.376;-10.782;2023-07-13T02:31:12;23.10;91.00
56300;DHT22;42209;6.376;-10.782;2023-07-13T02:33:42;22.80;82.30
56300;DHT22;42209;6.376;-10.782;2023-07-13T02:36:11;22.40;79.50
56300;DHT22;42209;6.376;-10.782;2023-07-13T02:38:40;22.40;85.00
56300;DHT22;42209;6.376;-10.782;2023-07-13T02:41:09;22.60;87.90
56300;DHT22;42209;6.376;-10.782;2023-07-13T02:43:39;22.70;89.10
56300;DHT22;42209;6.376;-10.782;2023-07-13T02:46:09;22.80;89.90
56300;DHT22;42209;6.376;-10.782;2023-07-13T02:48:38;22.90;90.30
56300;DHT22;42209;6.376;-10.782;2023-07-13T02:51:08;22.90;90.40
56300;DHT22;42209;6.376;-10.782;2023-07-13T02:53:36;22.90;90.70
56300;DHT22;42209;6.376;-10.782;2023-07-13T02:56:05;23.10;91.10
56300;DHT22;42209;6.376;-10.782;2023-07-13T02:58:34;23.10;91.10
56300;DHT22;42209;6.376;-10.782;2023-07-13T03:01:07;23.10;86.80
56300;DHT22;42209;6.376;-10.782;2023-07-13T03:03:37;22.70;81.80
56300;DHT22;42209;6.376;-10.782;2023-07-13T03:06:06;22.30;78.80
56300;DHT22;42209;6.376;-10.782;2023-07-13T03:08:42;22.40;84.70
56300;DHT22;42209;6.376;-10.782;2023-07-13T03:11:17;22.50;87.30
56300;DHT22;42209;6.376;-10.782;2023-07-13T03:13:53;22.70;88.70
56300;DHT22;42209;6.376;-10.782;2023-07-13T03:16:22;22.80;90.10
56300;DHT22;42209;6.376;-10.782;2023-07-13T03:18:52;22.90;90.20
56300;DHT22;42209;6.376;-10.782;2023-07-13T03:21:22;22.90;90.40
56300;DHT22;42209;6.376;-10.782;2023-07-13T03:23:52;23.00;90.70
56300;DHT22;42209;6.376;-10.782;2023-07-13T03:26:20;23.10;90.90
56300;DHT22;42209;6.376;-10.782;2023-07-13T03:28:49;23.10;91.20
56300;DHT22;42209;6.376;-10.782;2023-07-13T03:31:27;23.10;91.20
56300;DHT22;42209;6.376;-10.782;2023-07-13T03:33:57;23.00;85.80
56300;DHT22;42209;6.376;-10.782;2023-07-13T03:36:28;22.60;81.60
56300;DHT22;42209;6.376;-10.782;2023-07-13T03:39:02;22.30;80.30
56300;DHT22;42209;6.376;-10.782;2023-07-13T03:41:37;22.40;85.70
56300;DHT22;42209;6.376;-10.782;2023-07-13T03:44:06;22.50;88.20
56300;DHT22;42209;6.376;-10.782;2023-07-13T03:46:34;22.70;89.30
56300;DHT22;42209;6.376;-10.782;2023-07-13T03:49:04;22.80;90.00
56300;DHT22;42209;6.376;-10.782;2023-07-13T03:51:33;22.90;90.20
56300;DHT22;42209;6.376;-10.782;2023-07-13T03:54:02;22.90;90.60
56300;DHT22;42209;6.376;-10.782;2023-07-13T03:56:30;23.00;90.80
56300;DHT22;42209;6.376;-10.782;2023-07-13T03:58:59;23.10;91.00
56300;DHT22;42209;6.376;-10.782;2023-07-13T04:01:27;23.00;89.70
56300;DHT22;42209;6.376;-10.782;2023-07-13T04:03:55;22.70;82.90
56300;DHT22;42209;6.376;-10.782;2023-07-13T04:06:30;22.40;79.20
56300;DHT22;42209;6.376;-10.782;2023-07-13T04:09:01;22.30;84.50
56300;DHT22;42209;6.376;-10.782;2023-07-13T04:11:31;22.50;87.50
56300;DHT22;42209;6.376;-10.782;2023-07-13T04:14:00;22.60;88.60
56300;DHT22;42209;6.376;-10.782;2023-07-13T04:16:29;22.70;89.70
56300;DHT22;42209;6.376;-10.782;2023-07-13T04:18:58;22.80;90.10
56300;DHT22;42209;6.376;-10.782;2023-07-13T04:21:29;22.90;90.40
56300;DHT22;42209;6.376;-10.782;2023-07-13T04:23:59;22.90;90.60
56300;DHT22;42209;6.376;-10.782;2023-07-13T04:26:27;23.00;90.80
56300;DHT22;42209;6.376;-10.782;2023-07-13T04:28:56;23.10;91.00
56300;DHT22;42209;6.376;-10.782;2023-07-13T04:31:25;23.10;91.20
56300;DHT22;42209;6.376;-10.782;2023-07-13T04:33:53;23.10;91.30
56300;DHT22;42209;6.376;-10.782;2023-07-13T04:36:21;22.80;83.40
56300;DHT22;42209;6.376;-10.782;2023-07-13T04:38:50;22.50;79.40
56300;DHT22;42209;6.376;-10.782;2023-07-13T04:41:18;22.20;81.50
56300;DHT22;42209;6.376;-10.782;2023-07-13T04:43:47;22.40;86.40
56300;DHT22;42209;6.376;-10.782;2023-07-13T04:46:17;22.50;88.00
56300;DHT22;42209;6.376;-10.782;2023-07-13T04:48:46;22.60;89.30
56300;DHT22;42209;6.376;-10.782;2023-07-13T04:51:14;22.80;90.00
56300;DHT22;42209;6.376;-10.782;2023-07-13T04:53:43;22.80;90.20
56300;DHT22;42209;6.376;-10.782;2023-07-13T04:56:11;22.90;90.50
56300;DHT22;42209;6.376;-10.782;2023-07-13T04:58:40;23.00;90.80
56300;DHT22;42209;6.376;-10.782;2023-07-13T05:01:09;23.00;91.00
56300;DHT22;42209;6.376;-10.782;2023-07-13T05:03:38;23.00;91.20
56300;DHT22;42209;6.376;-10.782;2023-07-13T05:06:07;23.10;91.20
56300;DHT22;42209;6.376;-10.782;2023-07-13T05:08:36;22.90;84.50
56300;DHT22;42209;6.376;-10.782;2023-07-13T05:11:05;22.50;80.50
56300;DHT22;42209;6.376;-10.782;2023-07-13T05:13:33;22.30;81.70
56300;DHT22;42209;6.376;-10.782;2023-07-13T05:16:03;22.40;86.40
56300;DHT22;42209;6.376;-10.782;2023-07-13T05:18:32;22.60;88.10
56300;DHT22;42209;6.376;-10.782;2023-07-13T05:21:02;22.70;89.40
56300;DHT22;42209;6.376;-10.782;2023-07-13T05:23:32;22.80;89.90
56300;DHT22;42209;6.376;-10.782;2023-07-13T05:26:02;22.80;90.30
56300;DHT22;42209;6.376;-10.782;2023-07-13T05:28:34;22.90;90.60
56300;DHT22;42209;6.376;-10.782;2023-07-13T05:31:04;23.00;90.80
56300;DHT22;42209;6.376;-10.782;2023-07-13T05:33:32;23.00;91.10
56300;DHT22;42209;6.376;-10.782;2023-07-13T05:36:01;23.10;91.40
56300;DHT22;42209;6.376;-10.782;2023-07-13T05:38:29;23.10;91.30
56300;DHT22;42209;6.376;-10.782;2023-07-13T05:40:58;22.90;84.70
56300;DHT22;42209;6.376;-10.782;2023-07-13T05:43:34;22.50;80.60
56300;DHT22;42209;6.376;-10.782;2023-07-13T05:46:03;22.30;82.70
56300;DHT22;42209;6.376;-10.782;2023-07-13T05:48:31;22.50;86.60
56300;DHT22;42209;6.376;-10.782;2023-07-13T05:51:01;22.60;88.50
56300;DHT22;42209;6.376;-10.782;2023-07-13T05:53:29;22.70;89.60
56300;DHT22;42209;6.376;-10.782;2023-07-13T05:55:58;22.80;90.20
56300;DHT22;42209;6.376;-10.782;2023-07-13T05:58:30;22.90;90.50
56300;DHT22;42209;6.376;-10.782;2023-07-13T06:01:00;22.90;90.70
56300;DHT22;42209;6.376;-10.782;2023-07-13T06:03:29;23.00;91.00
56300;DHT22;42209;6.376;-10.782;2023-07-13T06:05:57;23.00;91.10
56300;DHT22;42209;6.376;-10.782;2023-07-13T06:08:27;23.10;91.30
56300;DHT22;42209;6.376;-10.782;2023-07-13T06:11:02;23.10;91.40
56300;DHT22;42209;6.376;-10.782;2023-07-13T06:13:31;22.90;84.90
56300;DHT22;42209;6.376;-10.782;2023-07-13T06:16:00;22.60;80.70
56300;DHT22;42209;6.376;-10.782;2023-07-13T06:18:29;22.30;81.40
56300;DHT22;42209;6.376;-10.782;2023-07-13T06:20:57;22.30;86.60
56300;DHT22;42209;6.376;-10.782;2023-07-13T06:23:25;22.50;88.40
56300;DHT22;42209;6.376;-10.782;2023-07-13T06:25:54;22.70;89.40
56300;DHT22;42209;6.376;-10.782;2023-07-13T06:28:22;22.80;90.00
56300;DHT22;42209;6.376;-10.782;2023-07-13T06:30:50;22.80;90.50
56300;DHT22;42209;6.376;-10.782;2023-07-13T06:33:18;22.90;90.70
56300;DHT22;42209;6.376;-10.782;2023-07-13T06:35:46;22.90;91.00
56300;DHT22;42209;6.376;-10.782;2023-07-13T06:38:14;23.00;91.10
56300;DHT22;42209;6.376;-10.782;2023-07-13T06:40:42;23.00;91.30
56300;DHT22;42209;6.376;-10.782;2023-07-13T06:43:11;23.10;91.40
56300;DHT22;42209;6.376;-10.782;2023-07-13T06:45:43;22.90;85.80
56300;DHT22;42209;6.376;-10.782;2023-07-13T06:48:12;22.60;81.20
56300;DHT22;42209;6.376;-10.782;2023-07-13T06:50:41;22.20;81.40
56300;DHT22;42209;6.376;-10.782;2023-07-13T06:53:12;22.30;86.90
56300;DHT22;42209;6.376;-10.782;2023-07-13T06:55:40;22.50;88.60
56300;DHT22;42209;6.376;-10.782;2023-07-13T06:58:08;22.60;89.70
56300;DHT22;42209;6.376;-10.782;2023-07-13T07:00:37;22.70;90.20
56300;DHT22;42209;6.376;-10.782;2023-07-13T07:03:05;22.80;90.50
56300;DHT22;42209;6.376;-10.782;2023-07-13T07:06:55;22.90;90.60
56300;DHT22;42209;6.376;-10.782;2023-07-13T07:09:26;23.00;90.80
56300;DHT22;42209;6.376;-10.782;2023-07-13T07:11:54;23.10;91.00
56300;DHT22;42209;6.376;-10.782;2023-07-13T07:14:31;23.10;91.10
56300;DHT22;42209;6.376;-10.782;2023-07-13T07:17:00;23.00;87.30
56300;DHT22;42209;6.376;-10.782;2023-07-13T07:19:30;22.70;81.40
56300;DHT22;42209;6.376;-10.782;2023-07-13T07:21:59;22.30;80.90
56300;DHT22;42209;6.376;-10.782;2023-07-13T07:24:27;22.40;86.50
56300;DHT22;42209;6.376;-10.782;2023-07-13T07:26:56;22.50;88.40
56300;DHT22;42209;6.376;-10.782;2023-07-13T07:29:27;22.60;89.50
56300;DHT22;42209;6.376;-10.782;2023-07-13T07:31:59;22.70;90.00
56300;DHT22;42209;6.376;-10.782;2023-07-13T07:34:33;22.80;90.40
56300;DHT22;42209;6.376;-10.782;2023-07-13T07:37:03;22.90;90.70
56300;DHT22;42209;6.376;-10.782;2023-07-13T07:39:34;22.90;90.90
56300;DHT22;42209;6.376;-10.782;2023-07-13T07:42:02;23.00;91.00
56300;DHT22;42209;6.376;-10.782;2023-07-13T07:44:31;23.00;91.20
56300;DHT22;42209;6.376;-10.782;2023-07-13T07:47:01;23.10;91.20
56300;DHT22;42209;6.376;-10.782;2023-07-13T07:49:31;23.10;91.00
56300;DHT22;42209;6.376;-10.782;2023-07-13T07:51:59;22.80;83.10
56300;DHT22;42209;6.376;-10.782;2023-07-13T07:54:28;22.40;79.70
56300;DHT22;42209;6.376;-10.782;2023-07-13T07:57:16;22.30;84.30
56300;DHT22;42209;6.376;-10.782;2023-07-13T08:00:05;22.50;87.70
56300;DHT22;42209;6.376;-10.782;2023-07-13T08:02:44;22.60;89.70
56300;DHT22;42209;6.376;-10.782;2023-07-13T08:05:15;22.70;90.40
56300;DHT22;42209;6.376;-10.782;2023-07-13T08:07:47;22.80;90.80
56300;DHT22;42209;6.376;-10.782;2023-07-13T08:10:16;22.90;91.20
56300;DHT22;42209;6.376;-10.782;2023-07-13T08:12:45;22.90;91.40
56300;DHT22;42209;6.376;-10.782;2023-07-13T08:15:33;23.00;91.70
56300;DHT22;42209;6.376;-10.782;2023-07-13T08:18:01;23.10;92.00
56300;DHT22;42209;6.376;-10.782;2023-07-13T08:20:30;23.10;92.10
56300;DHT22;42209;6.376;-10.782;2023-07-13T08:22:58;23.10;92.20
56300;DHT22;42209;6.376;-10.782;2023-07-13T08:25:26;23.20;92.40
56300;DHT22;42209;6.376;-10.782;2023-07-13T08:27:57;23.00;87.40
56300;DHT22;42209;6.376;-10.782;2023-07-13T08:30:26;22.50;82.50
56300;DHT22;42209;6.376;-10.782;2023-07-13T08:32:54;22.30;86.70
56300;DHT22;42209;6.376;-10.782;2023-07-13T08:37:44;22.60;90.20
56300;DHT22;42209;6.376;-10.782;2023-07-13T08:40:13;22.70;90.80
56300;DHT22;42209;6.376;-10.782;2023-07-13T08:42:57;22.80;91.30
56300;DHT22;42209;6.376;-10.782;2023-07-13T08:45:49;22.90;91.90
56300;DHT22;42209;6.376;-10.782;2023-07-13T08:48:56;23.00;92.30
56300;DHT22;42209;6.376;-10.782;2023-07-13T08:51:50;23.10;92.20
56300;DHT22;42209;6.376;-10.782;2023-07-13T08:56:58;23.10;92.60
56300;DHT22;42209;6.376;-10.782;2023-07-13T08:59:30;23.20;92.70
56300;DHT22;42209;6.376;-10.782;2023-07-13T09:05:27;23.10;89.90
56300;DHT22;42209;6.376;-10.782;2023-07-13T09:16:29;22.70;91.40
56300;DHT22;42209;6.376;-10.782;2023-07-13T09:18:59;22.90;92.00
56300;DHT22;42209;6.376;-10.782;2023-07-13T09:21:36;22.90;92.40
56300;DHT22;42209;6.376;-10.782;2023-07-13T09:24:41;23.00;92.80
56300;DHT22;42209;6.376;-10.782;2023-07-13T09:27:19;23.10;93.10
56300;DHT22;42209;6.376;-10.782;2023-07-13T09:29:56;23.20;92.90
56300;DHT22;42209;6.376;-10.782;2023-07-13T09:32:26;22.80;89.10
56300;DHT22;42209;6.376;-10.782;2023-07-13T09:34:56;22.40;84.30
56300;DHT22;42209;6.376;-10.782;2023-07-13T09:37:30;22.30;88.60
56300;DHT22;42209;6.376;-10.782;2023-07-13T09:40:02;22.50;90.60
56300;DHT22;42209;6.376;-10.782;2023-07-13T09:42:31;22.70;91.40
56300;DHT22;42209;6.376;-10.782;2023-07-13T09:45:02;22.80;92.10
56300;DHT22;42209;6.376;-10.782;2023-07-13T09:47:39;22.90;92.30
56300;DHT22;42209;6.376;-10.782;2023-07-13T09:50:15;23.00;92.70
56300;DHT22;42209;6.376;-10.782;2023-07-13T09:52:49;23.10;93.20
56300;DHT22;42209;6.376;-10.782;2023-07-13T09:57:55;23.10;92.90
56300;DHT22;42209;6.376;-10.782;2023-07-13T10:00:29;22.90;88.60
56300;DHT22;42209;6.376;-10.782;2023-07-13T10:03:21;22.50;85.00
56300;DHT22;42209;6.376;-10.782;2023-07-13T10:05:51;22.30;86.90
56300;DHT22;42209;6.376;-10.782;2023-07-13T10:08:30;22.50;90.80
56300;DHT22;42209;6.376;-10.782;2023-07-13T10:11:01;22.60;91.30
56300;DHT22;42209;6.376;-10.782;2023-07-13T10:13:36;22.80;92.00
56300;DHT22;42209;6.376;-10.782;2023-07-13T10:16:07;22.90;92.30
56300;DHT22;42209;6.376;-10.782;2023-07-13T10:21:35;23.00;92.30
56300;DHT22;42209;6.376;-10.782;2023-07-13T10:24:23;23.10;92.70
56300;DHT22;42209;6.376;-10.782;2023-07-13T10:26:54;23.10;93.00
56300;DHT22;42209;6.376;-10.782;2023-07-13T10:29:27;23.20;93.20
56300;DHT22;42209;6.376;-10.782;2023-07-13T10:31:56;23.20;93.40
56300;DHT22;42209;6.376;-10.782;2023-07-13T10:34:28;23.10;90.90
56300;DHT22;42209;6.376;-10.782;2023-07-13T10:36:59;22.80;87.40
56300;DHT22;42209;6.376;-10.782;2023-07-13T10:39:30;22.40;84.60
56300;DHT22;42209;6.376;-10.782;2023-07-13T10:42:03;22.40;90.20
56300;DHT22;42209;6.376;-10.782;2023-07-13T10:44:39;22.60;91.20
56300;DHT22;42209;6.376;-10.782;2023-07-13T10:47:12;22.70;91.60
56300;DHT22;42209;6.376;-10.782;2023-07-13T10:49:43;22.90;92.20
56300;DHT22;42209;6.376;-10.782;2023-07-13T10:52:41;23.00;92.50
56300;DHT22;42209;6.376;-10.782;2023-07-13T10:58:11;23.10;92.20
56300;DHT22;42209;6.376;-10.782;2023-07-13T11:01:27;22.70;85.10
56300;DHT22;42209;6.376;-10.782;2023-07-13T11:09:17;22.60;90.60
56300;DHT22;42209;6.376;-10.782;2023-07-13T11:11:46;22.70;91.30
56300;DHT22;42209;6.376;-10.782;2023-07-13T11:14:38;22.80;91.70
56300;DHT22;42209;6.376;-10.782;2023-07-13T11:17:36;22.90;92.00
56300;DHT22;42209;6.376;-10.782;2023-07-13T11:25:33;23.10;92.80
56300;DHT22;42209;6.376;-10.782;2023-07-13T11:30:46;22.60;85.30
56300;DHT22;42209;6.376;-10.782;2023-07-13T11:36:13;22.50;90.10
56300;DHT22;42209;6.376;-10.782;2023-07-13T11:38:55;22.70;90.90
56300;DHT22;42209;6.376;-10.782;2023-07-13T11:41:32;22.80;91.30
56300;DHT22;42209;6.376;-10.782;2023-07-13T11:44:20;22.90;91.80
56300;DHT22;42209;6.376;-10.782;2023-07-13T11:46:57;23.00;92.00
56300;DHT22;42209;6.376;-10.782;2023-07-13T11:49:29;23.00;92.00
56300;DHT22;42209;6.376;-10.782;2023-07-13T11:52:04;23.10;92.10
56300;DHT22;42209;6.376;-10.782;2023-07-13T11:54:43;23.10;92.40
56300;DHT22;42209;6.376;-10.782;2023-07-13T11:57:44;23.20;92.50
56300;DHT22;42209;6.376;-10.782;2023-07-13T12:00:25;23.20;92.90
56300;DHT22;42209;6.376;-10.782;2023-07-13T12:02:57;22.90;86.50
56300;DHT22;42209;6.376;-10.782;2023-07-13T12:05:27;22.40;82.20
56300;DHT22;42209;6.376;-10.782;2023-07-13T12:07:56;22.40;87.80
56300;DHT22;42209;6.376;-10.782;2023-07-13T12:10:25;22.50;90.20
56300;DHT22;42209;6.376;-10.782;2023-07-13T12:13:02;22.70;90.80
56300;DHT22;42209;6.376;-10.782;2023-07-13T12:15:40;22.80;91.40
56300;DHT22;42209;6.376;-10.782;2023-07-13T12:18:32;22.90;91.80
56300;DHT22;42209;6.376;-10.782;2023-07-13T12:21:13;23.00;92.30
56300;DHT22;42209;6.376;-10.782;2023-07-13T12:23:44;23.10;92.60
56300;DHT22;42209;6.376;-10.782;2023-07-13T12:26:14;23.20;92.70
56300;DHT22;42209;6.376;-10.782;2023-07-13T12:28:46;22.90;86.20
56300;DHT22;42209;6.376;-10.782;2023-07-13T12:31:36;22.50;82.10
56300;DHT22;42209;6.376;-10.782;2023-07-13T12:34:24;22.40;86.90
56300;DHT22;42209;6.376;-10.782;2023-07-13T12:37:03;22.60;89.30
56300;DHT22;42209;6.376;-10.782;2023-07-13T12:39:45;22.70;90.20
56300;DHT22;42209;6.376;-10.782;2023-07-13T12:47:46;23.00;91.70
56300;DHT22;42209;6.376;-10.782;2023-07-13T12:50:22;23.10;92.00
56300;DHT22;42209;6.376;-10.782;2023-07-13T12:52:59;23.10;92.30
56300;DHT22;42209;6.376;-10.782;2023-07-13T12:55:29;23.10;90.30
56300;DHT22;42209;6.376;-10.782;2023-07-13T12:58:03;22.70;85.00
56300;DHT22;42209;6.376;-10.782;2023-07-13T13:00:35;22.50;82.20
56300;DHT22;42209;6.376;-10.782;2023-07-13T13:03:13;22.40;85.60
56300;DHT22;42209;6.376;-10.782;2023-07-13T13:05:59;22.50;89.30
56300;DHT22;42209;6.376;-10.782;2023-07-13T13:08:27;22.70;90.50
56300;DHT22;42209;6.376;-10.782;2023-07-13T13:10:56;22.80;90.90
56300;DHT22;42209;6.376;-10.782;2023-07-13T13:13:24;22.90;91.20
56300;DHT22;42209;6.376;-10.782;2023-07-13T13:15:53;23.00;91.40
56300;DHT22;42209;6.376;-10.782;2023-07-13T13:18:25;23.10;91.60
56300;DHT22;42209;6.376;-10.782;2023-07-13T13:20:55;23.10;91.70
56300;DHT22;42209;6.376;-10.782;2023-07-13T13:23:24;23.10;92.00
56300;DHT22;42209;6.376;-10.782;2023-07-13T13:26:02;23.20;92.20
56300;DHT22;42209;6.376;-10.782;2023-07-13T13:28:31;22.90;85.90
56300;DHT22;42209;6.376;-10.782;2023-07-13T13:31:00;22.60;81.90
56300;DHT22;42209;6.376;-10.782;2023-07-13T13:33:35;22.30;82.90
56300;DHT22;42209;6.376;-10.782;2023-07-13T13:36:04;22.40;88.10
56300;DHT22;42209;6.376;-10.782;2023-07-13T13:38:37;22.60;89.80
56300;DHT22;42209;6.376;-10.782;2023-07-13T13:41:07;22.70;90.30
56300;DHT22;42209;6.376;-10.782;2023-07-13T13:43:36;22.80;90.80
56300;DHT22;42209;6.376;-10.782;2023-07-13T13:48:44;23.00;91.50
56300;DHT22;42209;6.376;-10.782;2023-07-13T13:51:21;23.10;91.90
56300;DHT22;42209;6.376;-10.782;2023-07-13T13:53:50;23.20;92.00
56300;DHT22;42209;6.376;-10.782;2023-07-13T13:56:21;23.20;90.70
56300;DHT22;42209;6.376;-10.782;2023-07-13T13:58:51;22.80;84.30
56300;DHT22;42209;6.376;-10.782;2023-07-13T14:01:22;22.50;80.70
56300;DHT22;42209;6.376;-10.782;2023-07-13T14:03:57;22.30;83.30
56300;DHT22;42209;6.376;-10.782;2023-07-13T14:06:39;22.50;87.60
56300;DHT22;42209;6.376;-10.782;2023-07-13T14:09:13;22.60;89.30
56300;DHT22;42209;6.376;-10.782;2023-07-13T14:11:43;22.80;90.10
56300;DHT22;42209;6.376;-10.782;2023-07-13T14:14:21;22.90;90.40
56300;DHT22;42209;6.376;-10.782;2023-07-13T14:16:53;23.00;90.70
56300;DHT22;42209;6.376;-10.782;2023-07-13T14:19:23;23.10;90.90
56300;DHT22;42209;6.376;-10.782;2023-07-13T14:21:52;23.10;91.30
56300;DHT22;42209;6.376;-10.782;2023-07-13T14:24:21;23.10;91.50
56300;DHT22;42209;6.376;-10.782;2023-07-13T14:26:50;23.10;87.40
56300;DHT22;42209;6.376;-10.782;2023-07-13T14:29:22;22.80;82.60
56300;DHT22;42209;6.376;-10.782;2023-07-13T14:31:52;22.50;79.50
56300;DHT22;42209;6.376;-10.782;2023-07-13T14:34:24;22.30;77.30
56300;DHT22;42209;6.376;-10.782;2023-07-13T14:36:54;22.40;84.20
56300;DHT22;42209;6.376;-10.782;2023-07-13T14:39:24;22.60;86.90
56300;DHT22;42209;6.376;-10.782;2023-07-13T14:41:54;22.70;88.50
56300;DHT22;42209;6.376;-10.782;2023-07-13T14:44:33;22.80;89.50
56300;DHT22;42209;6.376;-10.782;2023-07-13T14:47:07;22.90;90.10
56300;DHT22;42209;6.376;-10.782;2023-07-13T14:49:42;23.00;90.40
56300;DHT22;42209;6.376;-10.782;2023-07-13T14:52:17;23.10;90.70
56300;DHT22;42209;6.376;-10.782;2023-07-13T14:54:50;23.10;90.30
56300;DHT22;42209;6.376;-10.782;2023-07-13T14:57:20;22.80;82.10
56300;DHT22;42209;6.376;-10.782;2023-07-13T14:59:49;22.50;79.50
56300;DHT22;42209;6.376;-10.782;2023-07-13T15:02:50;22.40;77.10
56300;DHT22;42209;6.376;-10.782;2023-07-13T15:05:24;22.40;83.40
56300;DHT22;42209;6.376;-10.782;2023-07-13T15:07:58;22.60;86.20
56300;DHT22;42209;6.376;-10.782;2023-07-13T15:10:32;22.70;87.70
56300;DHT22;42209;6.376;-10.782;2023-07-13T15:13:15;22.80;88.50
56300;DHT22;42209;6.376;-10.782;2023-07-13T15:15:49;22.90;89.20
56300;DHT22;42209;6.376;-10.782;2023-07-13T15:18:25;22.90;89.70
56300;DHT22;42209;6.376;-10.782;2023-07-13T15:21:01;23.00;90.20
56300;DHT22;42209;6.376;-10.782;2023-07-13T15:23:34;23.00;90.40
56300;DHT22;42209;6.376;-10.782;2023-07-13T15:26:03;23.10;90.90
56300;DHT22;42209;6.376;-10.782;2023-07-13T15:28:32;23.10;91.20
56300;DHT22;42209;6.376;-10.782;2023-07-13T15:31:00;23.20;91.40
56300;DHT22;42209;6.376;-10.782;2023-07-13T15:33:29;23.00;85.40
56300;DHT22;42209;6.376;-10.782;2023-07-13T15:35:59;22.60;80.70
56300;DHT22;42209;6.376;-10.782;2023-07-13T15:38:29;22.40;83.00
56300;DHT22;42209;6.376;-10.782;2023-07-13T15:40:58;22.60;87.20
56300;DHT22;42209;6.376;-10.782;2023-07-13T15:43:28;22.70;89.00
56300;DHT22;42209;6.376;-10.782;2023-07-13T15:46:01;22.80;90.00
56300;DHT22;42209;6.376;-10.782;2023-07-13T15:48:35;22.90;90.40
56300;DHT22;42209;6.376;-10.782;2023-07-13T15:51:19;23.00;90.70
56300;DHT22;42209;6.376;-10.782;2023-07-13T15:53:49;23.00;91.00
56300;DHT22;42209;6.376;-10.782;2023-07-13T15:56:34;23.10;91.30
56300;DHT22;42209;6.376;-10.782;2023-07-13T15:59:03;23.10;91.50
56300;DHT22;42209;6.376;-10.782;2023-07-13T16:01:32;23.20;91.70
56300;DHT22;42209;6.376;-10.782;2023-07-13T16:04:01;23.10;87.30
56300;DHT22;42209;6.376;-10.782;2023-07-13T16:06:34;22.70;81.60
56300;DHT22;42209;6.376;-10.782;2023-07-13T16:09:07;22.40;82.90
56300;DHT22;42209;6.376;-10.782;2023-07-13T16:11:38;22.50;87.70
56300;DHT22;42209;6.376;-10.782;2023-07-13T16:14:12;22.60;89.10
56300;DHT22;42209;6.376;-10.782;2023-07-13T16:16:41;22.80;90.10
56300;DHT22;42209;6.376;-10.782;2023-07-13T16:19:11;22.90;90.50
56300;DHT22;42209;6.376;-10.782;2023-07-13T16:21:43;23.00;90.60
56300;DHT22;42209;6.376;-10.782;2023-07-13T16:24:32;23.10;90.90
56300;DHT22;42209;6.376;-10.782;2023-07-13T16:27:01;23.10;91.20
56300;DHT22;42209;6.376;-10.782;2023-07-13T16:29:31;23.20;91.40
56300;DHT22;42209;6.376;-10.782;2023-07-13T16:32:00;23.20;90.70
56300;DHT22;42209;6.376;-10.782;2023-07-13T16:34:31;22.90;83.60
56300;DHT22;42209;6.376;-10.782;2023-07-13T16:37:25;22.50;80.30